sensor_id;sensor_type;location;lat;lon;timestamp;P1;durP1;ratioP1;P2;durP2;ratioP2
36629;SDS011;36256;42.154;23.002;2023-09-19T20:41:26;12.93;;;11.60;;
36629;SDS011;36256;42.154;23.002;2023-09-19T20:43:53;13.65;;;10.75;;
36629;SDS011;36256;42.154;23.002;2023-09-19T20:46:21;15.63;;;11.15;;
36629;SDS011;36256;42.154;23.002;2023-09-19T20:48:49;13.88;;;11.88;;
36629;SDS011;36256;42.154;23.002;2023-09-19T20:51:16;18.33;;;11.82;;
36629;SDS011;36256;42.154;23.002;2023-09-19T20:53:52;15.35;;;11.88;;
36629;SDS011;36256;42.154;23.002;2023-09-19T20:56:19;18.48;;;12.38;;
36629;SDS011;36256;42.154;23.002;2023-09-19T20:58:47;15.68;;;11.70;;
36629;SDS011;36256;42.154;23.002;2023-09-19T21:01:14;17.50;;;12.07;;
36629;SDS011;36256;42.154;23.002;2023-09-19T21:03:42;14.48;;;11.60;;
36629;SDS011;36256;42.154;23.002;2023-09-19T21:06:10;12.90;;;11.55;;
36629;SDS011;36256;42.154;23.002;2023-09-19T21:08:37;16.58;;;12.07;;
36629;SDS011;36256;42.154;23.002;2023-09-19T21:11:18;15.50;;;10.18;;
36629;SDS011;36256;42.154;23.002;2023-09-19T21:13:49;15.10;;;10.75;;
36629;SDS011;36256;42.154;23.002;2023-09-19T21:16:19;12.80;;;9.57;;
36629;SDS011;36256;42.154;23.002;2023-09-19T21:18:47;16.75;;;9.40;;
36629;SDS011;36256;42.154;23.002;2023-09-19T21:21:15;11.70;;;8.10;;
36629;SDS011;36256;42.154;23.002;2023-09-19T21:23:42;14.80;;;8.20;;
36629;SDS011;36256;42.154;23.002;2023-09-19T21:26:10;16.92;;;7.78;;
36629;SDS011;36256;42.154;23.002;2023-09-19T21:28:38;20.02;;;7.80;;
36629;SDS011;36256;42.154;23.002;2023-09-19T21:31:06;20.35;;;7.75;;
36629;SDS011;36256;42.154;23.002;2023-09-19T21:33:36;10.85;;;6.65;;
36629;SDS011;36256;42.154;23.002;2023-09-19T21:36:04;12.60;;;6.57;;
36629;SDS011;36256;42.154;23.002;2023-09-19T21:38:36;9.30;;;6.55;;
36629;SDS011;36256;42.154;23.002;2023-09-19T21:41:09;10.00;;;6.15;;
36629;SDS011;36256;42.154;23.002;2023-09-19T21:43:38;9.65;;;5.78;;
36629;SDS011;36256;42.154;23.002;2023-09-19T21:46:05;8.75;;;5.80;;
36629;SDS011;36256;42.154;23.002;2023-09-19T21:50:59;10.48;;;5.93;;
36629;SDS011;36256;42.154;23.002;2023-09-19T21:53:26;7.85;;;6.22;;
36629;SDS011;36256;42.154;23.002;2023-09-19T21:56:00;10.65;;;6.20;;
36629;SDS011;36256;42.154;23.002;2023-09-19T21:58:28;8.80;;;5.80;;
36629;SDS011;36256;42.154;23.002;2023-09-19T22:00:57;8.85;;;6.30;;
36629;SDS011;36256;42.154;23.002;2023-09-19T22:03:29;9.85;;;5.57;;
36629;SDS011;36256;42.154;23.002;2023-09-19T22:06:01;9.35;;;5.88;;
36629;SDS011;36256;42.154;23.002;2023-09-19T22:08:31;9.07;;;5.68;;
36629;SDS011;36256;42.154;23.002;2023-09-19T22:10:58;9.00;;;5.65;;
36629;SDS011;36256;42.154;23.002;2023-09-19T22:13:29;9.25;;;5.60;;
36629;SDS011;36256;42.154;23.002;2023-09-19T22:18:28;8.70;;;5.53;;
36629;SDS011;36256;42.154;23.002;2023-09-19T22:20:59;7.82;;;5.45;;
36629;SDS011;36256;42.154;23.002;2023-09-19T22:23:29;7.50;;;5.47;;
36629;SDS011;36256;42.154;23.002;2023-09-19T22:26:04;6.55;;;5.70;;
36629;SDS011;36256;42.154;23.002;2023-09-19T22:28:32;8.32;;;5.38;;
36629;SDS011;36256;42.154;23.002;2023-09-19T22:31:02;8.38;;;5.35;;
36629;SDS011;36256;42.154;23.002;2023-09-19T22:33:35;6.25;;;5.30;;
36629;SDS011;36256;42.154;23.002;2023-09-19T22:36:05;8.65;;;5.00;;
36629;SDS011;36256;42.154;23.002;2023-09-19T22:38:32;8.85;;;5.50;;
36629;SDS011;36256;42.154;23.002;2023-09-19T22:41:02;5.95;;;5.13;;
36629;SDS011;36256;42.154;23.002;2023-09-19T22:43:40;6.93;;;5.10;;
36629;SDS011;36256;42.154;23.002;2023-09-19T22:46:14;7.63;;;5.15;;
36629;SDS011;36256;42.154;23.002;2023-09-19T22:48:43;7.28;;;5.95;;
36629;SDS011;36256;42.154;23.002;2023-09-19T22:51:14;6.95;;;4.88;;
36629;SDS011;36256;42.154;23.002;2023-09-19T22:53:51;10.23;;;5.10;;
36629;SDS011;36256;42.154;23.002;2023-09-19T22:56:24;7.82;;;5.30;;
36629;SDS011;36256;42.154;23.002;2023-09-19T22:58:53;7.22;;;5.38;;
36629;SDS011;36256;42.154;23.002;2023-09-19T23:01:21;9.95;;;5.50;;
36629;SDS011;36256;42.154;23.002;2023-09-19T23:03:50;10.02;;;5.47;;
36629;SDS011;36256;42.154;23.002;2023-09-19T23:06:18;8.38;;;5.47;;
36629;SDS011;36256;42.154;23.002;2023-09-19T23:08:49;10.35;;;5.75;;
36629;SDS011;36256;42.154;23.002;2023-09-19T23:11:21;9.75;;;5.55;;
36629;SDS011;36256;42.154;23.002;2023-09-19T23:13:50;8.93;;;4.88;;
36629;SDS011;36256;42.154;23.002;2023-09-19T23:16:21;10.32;;;5.07;;
36629;SDS011;36256;42.154;23.002;2023-09-19T23:18:54;6.97;;;5.57;;
36629;SDS011;36256;42.154;23.002;2023-09-19T23:21:25;12.02;;;5.57;;
36629;SDS011;36256;42.154;23.002;2023-09-19T23:23:55;10.00;;;5.40;;
36629;SDS011;36256;42.154;23.002;2023-09-19T23:26:25;7.05;;;5.03;;
36629;SDS011;36256;42.154;23.002;2023-09-19T23:28:52;9.93;;;5.50;;
36629;SDS011;36256;42.154;23.002;2023-09-19T23:31:19;7.90;;;5.20;;
36629;SDS011;36256;42.154;23.002;2023-09-19T23:33:48;8.23;;;5.47;;
36629;SDS011;36256;42.154;23.002;2023-09-19T23:36:16;8.23;;;5.25;;
36629;SDS011;36256;42.154;23.002;2023-09-19T23:38:43;9.52;;;5.10;;
36629;SDS011;36256;42.154;23.002;2023-09-19T23:41:13;12.18;;;5.63;;
36629;SDS011;36256;42.154;23.002;2023-09-19T23:43:47;8.70;;;5.43;;
36629;SDS011;36256;42.154;23.002;2023-09-19T23:46:18;5.85;;;4.90;;
36629;SDS011;36256;42.154;23.002;2023-09-19T23:48:47;7.15;;;5.47;;
36629;SDS011;36256;42.154;23.002;2023-09-19T23:51:13;5.80;;;4.80;;
36629;SDS011;36256;42.154;23.002;2023-09-19T23:53:46;9.65;;;5.55;;
36629;SDS011;36256;42.154;23.002;2023-09-19T23:56:12;7.03;;;5.18;;
36629;SDS011;36256;42.154;23.002;2023-09-19T23:58:40;8.98;;;5.47;;
